Flight Track Log - Related Links

Times and Time Zones

All times are in EDT time to prevent confusion due to time zone crossing. See the EJA604 flight status page for this flight to view local times or setup timezone preferences in your user account.

Time Position Orientation Groundspeed Altitude Reporting Facility
EDT Latitude Longitude Course Direction KTS MPH feet Rate Location/Type
Sat 12:40:12 PM 38.1500 -78.4500 21° North 164 189 1,400  Level Potomac TRACON
Sat 12:41:12 PM 38.2167 -78.4167 21° North 244 281 4,500 3,074 Climbing Potomac TRACON
Sat 12:42:13 PM 38.2333 -78.4833 288° West 272 313 7,600 2,727 Climbing Potomac TRACON
Sat 12:42:29 PM 38.2089 -78.5011 210° Southwest 278 320 8,000 1,054 Climbing Washington Center
Sat 12:43:27 PM 38.1414 -78.5303 199° South 269 310 8,900 508 Climbing Washington Center
Sat 12:44:27 PM 38.0822 -78.5622 203° Southwest 269 310 9,000 885 Climbing Washington Center
Sat 12:45:29 PM 38.0106 -78.5961 200° South 269 310 10,700 2,016 Climbing Washington Center
Sat 12:46:29 PM 37.9325 -78.6353 202° Southwest 280 322 13,100 2,450 Climbing Washington Center
Sat 12:47:29 PM 37.8481 -78.6714 199° South 303 349 15,600 2,542 Climbing Washington Center
Sat 12:48:27 PM 37.7489 -78.7172 200° South 338 389 18,100 2,218 Climbing Washington Center
Sat 12:49:28 PM 37.6558 -78.7631 201° Southwest 350 403 20,000 1,587 Climbing Washington Center
Sat 12:50:28 PM 37.5567 -78.8089 200° South 372 428 21,300 1,388 Climbing Washington Center
Sat 12:51:29 PM 37.4531 -78.8567 200° South 384 442 22,800 1,488 Climbing Washington Center
Sat 12:52:29 PM 37.3581 -78.9022 201° Southwest 397 457 24,300 1,475 Climbing Washington Center
Sat 12:53:27 PM 37.2544 -78.9500 200° South 397 457 25,700 1,475 Climbing Washington Center
Sat 12:54:27 PM 37.1486 -78.9975 200° South 402 463 27,200 1,140 Climbing Washington Center
Sat 12:55:28 PM 37.0431 -79.0500 202° Southwest 402 463 28,000 393 Climbing Washington Center
Sat 12:56:29 PM 36.9331 -79.0997 200° South 413 475 28,000  Level Washington Center
Sat 12:57:29 PM 36.8125 -79.1567 201° Southwest 419 482 28,000  Level Washington Center
Sat 12:58:27 PM 36.6983 -79.2058 199° South 419 482 28,000  Level Washington Center
Sat 12:59:29 PM 36.5903 -79.2575 201° Southwest 424 488 28,000  Level Washington Center
Sat 01:00:27 PM 36.4781 -79.3092 200° South 424 488 28,000  Level Washington Center
Sat 01:01:27 PM 36.3678 -79.3633 202° Southwest 429 494 28,000  Level Washington Center
Sat 01:02:28 PM 36.2578 -79.4119 200° South 429 494 28,000  Level Washington Center
Sat 01:03:29 PM 36.1497 -79.4633 201° Southwest 429 494 28,000  Level Washington Center
Sat 01:04:27 PM 36.0375 -79.5144 200° South 424 488 28,000  Level Washington Center
Sat 01:05:27 PM 35.9381 -79.5581 200° South 424 488 28,000  Level Washington Center
Sat 01:06:28 PM 35.8172 -79.6111 200° South 418 481 28,000  Level Washington Center
Sat 01:07:29 PM 35.7161 -79.6442 195° South 418 481 28,000  Level Washington Center
Sat 01:08:29 PM 35.5875 -79.6811 193° South 424 488 28,000  Level Washington Center
Sat 01:09:27 PM 35.4733 -79.7214 196° South 429 494 28,000  Level Washington Center
Sat 01:10:27 PM 35.3575 -79.7561 194° South 429 494 28,000  Level Washington Center
Sat 01:11:28 PM 35.2436 -79.7908 194° South 429 494 28,000  Level Washington Center
Sat 01:13:16 PM 35.0453 -79.8550 195° South 430 495 28,000  Level Jacksonville Center
Sat 01:14:16 PM 34.9292 -79.8897 194° South 430 495 28,000  Level Jacksonville Center
Sat 01:15:16 PM 34.8133 -79.9267 195° South 430 495 28,000 -350 Level Jacksonville Center
Sat 01:16:16 PM 34.6994 -79.9608 194° South 430 495 27,300 -1,050 Descending Jacksonville Center
Sat 01:17:16 PM 34.5856 -79.9925 193° South 430 495 25,900 -1,150 Descending Jacksonville Center
Sat 01:18:16 PM 34.4611 -80.0294 194° South 430 495 25,000 -450 Descending Jacksonville Center
Sat 01:19:16 PM 34.3492 -80.0658 195° South 430 495 25,000  Level Jacksonville Center
Sat 01:20:16 PM 34.2375 -80.1019 195° South 430 495 25,000  Level Jacksonville Center
Sat 01:21:16 PM 34.1214 -80.1383 195° South 430 495 25,000  Level Jacksonville Center
Sat 01:22:16 PM 34.0075 -80.1719 194° South 430 495 25,000  Level Jacksonville Center
Sat 01:23:16 PM 33.8956 -80.2056 194° South 430 495 25,000  Level Jacksonville Center
Sat 01:24:16 PM 33.7792 -80.2389 193° South 430 495 25,000 -300 Level Jacksonville Center
Sat 01:25:16 PM 33.6631 -80.2750 195° South 430 495 24,400 -500 Descending Jacksonville Center
Sat 01:26:16 PM 33.5469 -80.3108 194° South 430 495 24,000 -1,050 Descending Jacksonville Center
Sat 01:27:16 PM 33.4331 -80.3439 194° South 430 495 22,300 -1,800 Descending Jacksonville Center
Sat 01:28:16 PM 33.3231 -80.3769 194° South 430 495 20,400 -1,900 Descending Jacksonville Center
Sat 01:29:16 PM 33.2172 -80.4097 195° South 414 476 18,500 -1,650 Descending Jacksonville Center
Sat 01:30:16 PM 33.1258 -80.4369 194° South 395 455 17,100 -1,650 Descending Jacksonville Center
Sat 01:31:16 PM 33.0222 -80.4672 194° South 390 449 15,200 -1,900 Descending Jacksonville Center
Sat 01:32:16 PM 32.9183 -80.4972 194° South 390 449 13,300 -1,750 Descending Jacksonville Center
Sat 01:33:16 PM 32.8208 -80.5244 193° South 380 437 11,700 -1,550 Descending Jacksonville Center
Sat 01:34:16 PM 32.7336 -80.5514 195° South 357 411 10,200 -1,600 Descending Jacksonville Center
Sat 01:35:16 PM 32.6547 -80.5831 199° South 282 325 8,500 -1,550 Descending Jacksonville Center
Sat 01:36:16 PM 32.5886 -80.6119 200° South 265 305 7,100 -1,450 Descending Jacksonville Center
Sat 01:37:16 PM 32.5097 -80.6458 200° South 274 315 5,600 -1,350 Descending Jacksonville Center
Sat 01:38:16 PM 32.4436 -80.6819 205° Southwest 269 310 4,400 -1,200 Descending Jacksonville Center
Sat 01:39:16 PM 32.3836 -80.7131 204° Southwest 269 310 3,200 -1,200 Descending Jacksonville Center
Sat 01:41:00 PM 32.2244 -80.6975 North  Level Estimated
Sat 01:48:00 PM 32.2244 -80.6975 North  Level Estimated
Sat 01:49:00 PM 32.2244 -80.6975 North  Level Estimated
Sat 01:50:00 PM 32.2244 -80.6975 North  Level Estimated
Sat 01:51:00 PM 32.2244 -80.6975 North  Level Estimated
Sat 01:52:00 PM 32.2244 -80.6975 North  Level Estimated

Login

Don't have an account? Register now (free) for customized features, flight alerts, and more!